sensor_id;sensor_type;location;lat;lon;timestamp;temperature;humidity
23385;DHT22;11865;45.394;10.978;2023-07-09T00:02:03;22.60;95.30
23385;DHT22;11865;45.394;10.978;2023-07-09T00:04:31;22.50;96.70
23385;DHT22;11865;45.394;10.978;2023-07-09T00:07:02;22.30;97.30
23385;DHT22;11865;45.394;10.978;2023-07-09T00:09:31;22.20;97.80
23385;DHT22;11865;45.394;10.978;2023-07-09T00:11:59;22.00;97.90
23385;DHT22;11865;45.394;10.978;2023-07-09T00:14:26;21.90;98.80
23385;DHT22;11865;45.394;10.978;2023-07-09T00:16:54;21.90;96.80
23385;DHT22;11865;45.394;10.978;2023-07-09T00:19:22;22.30;95.40
23385;DHT22;11865;45.394;10.978;2023-07-09T00:21:56;22.40;96.90
23385;DHT22;11865;45.394;10.978;2023-07-09T00:24:24;22.30;97.80
23385;DHT22;11865;45.394;10.978;2023-07-09T00:26:51;22.50;94.50
23385;DHT22;11865;45.394;10.978;2023-07-09T00:29:19;22.50;97.20
23385;DHT22;11865;45.394;10.978;2023-07-09T00:31:47;22.30;97.20
23385;DHT22;11865;45.394;10.978;2023-07-09T00:34:15;22.20;96.80
23385;DHT22;11865;45.394;10.978;2023-07-09T00:36:49;22.30;94.90
23385;DHT22;11865;45.394;10.978;2023-07-09T00:39:20;22.70;93.20
23385;DHT22;11865;45.394;10.978;2023-07-09T00:41:50;22.90;92.60
23385;DHT22;11865;45.394;10.978;2023-07-09T00:44:30;23.10;92.10
23385;DHT22;11865;45.394;10.978;2023-07-09T00:49:33;23.20;92.00
23385;DHT22;11865;45.394;10.978;2023-07-09T00:52:15;23.20;92.00
23385;DHT22;11865;45.394;10.978;2023-07-09T00:54:47;23.10;92.80
23385;DHT22;11865;45.394;10.978;2023-07-09T00:57:19;23.00;94.30
23385;DHT22;11865;45.394;10.978;2023-07-09T01:00:04;22.70;96.00
23385;DHT22;11865;45.394;10.978;2023-07-09T01:02:44;22.40;97.40
23385;DHT22;11865;45.394;10.978;2023-07-09T01:05:14;22.00;97.10
23385;DHT22;11865;45.394;10.978;2023-07-09T01:07:44;21.90;97.20
23385;DHT22;11865;45.394;10.978;2023-07-09T01:10:16;21.90;98.60
23385;DHT22;11865;45.394;10.978;2023-07-09T01:12:47;21.70;98.90
23385;DHT22;11865;45.394;10.978;2023-07-09T01:15:15;21.50;98.60
23385;DHT22;11865;45.394;10.978;2023-07-09T01:17:43;21.40;99.90
23385;DHT22;11865;45.394;10.978;2023-07-09T01:20:18;21.20;99.90
23385;DHT22;11865;45.394;10.978;2023-07-09T01:22:50;21.20;99.30
23385;DHT22;11865;45.394;10.978;2023-07-09T01:25:26;21.10;99.30
23385;DHT22;11865;45.394;10.978;2023-07-09T01:27:55;21.30;98.70
23385;DHT22;11865;45.394;10.978;2023-07-09T01:30:32;21.40;99.90
23385;DHT22;11865;45.394;10.978;2023-07-09T01:33:01;21.30;99.90
23385;DHT22;11865;45.394;10.978;2023-07-09T01:35:32;21.10;99.90
23385;DHT22;11865;45.394;10.978;2023-07-09T01:38:00;21.00;99.90
23385;DHT22;11865;45.394;10.978;2023-07-09T01:40:28;21.00;99.90
23385;DHT22;11865;45.394;10.978;2023-07-09T01:43:01;20.90;99.90
23385;DHT22;11865;45.394;10.978;2023-07-09T01:45:29;20.90;99.90
23385;DHT22;11865;45.394;10.978;2023-07-09T01:47:57;20.80;99.90
23385;DHT22;11865;45.394;10.978;2023-07-09T01:50:25;20.80;99.90
23385;DHT22;11865;45.394;10.978;2023-07-09T01:52:56;21.00;99.90
23385;DHT22;11865;45.394;10.978;2023-07-09T01:55:24;21.00;99.90
23385;DHT22;11865;45.394;10.978;2023-07-09T01:57:52;20.90;99.90
23385;DHT22;11865;45.394;10.978;2023-07-09T02:00:20;21.00;99.90
23385;DHT22;11865;45.394;10.978;2023-07-09T02:02:48;21.10;99.90
23385;DHT22;11865;45.394;10.978;2023-07-09T02:05:20;21.20;99.80
23385;DHT22;11865;45.394;10.978;2023-07-09T02:07:48;21.20;99.90
23385;DHT22;11865;45.394;10.978;2023-07-09T02:10:17;21.00;99.90
23385;DHT22;11865;45.394;10.978;2023-07-09T02:12:45;20.90;99.90
23385;DHT22;11865;45.394;10.978;2023-07-09T02:15:14;20.90;99.90
23385;DHT22;11865;45.394;10.978;2023-07-09T02:17:43;20.80;99.90
23385;DHT22;11865;45.394;10.978;2023-07-09T02:20:12;20.70;99.90
23385;DHT22;11865;45.394;10.978;2023-07-09T02:22:42;20.60;99.90
23385;DHT22;11865;45.394;10.978;2023-07-09T02:25:09;20.50;99.90
23385;DHT22;11865;45.394;10.978;2023-07-09T02:27:39;20.50;99.90
23385;DHT22;11865;45.394;10.978;2023-07-09T02:30:07;20.50;99.90
23385;DHT22;11865;45.394;10.978;2023-07-09T02:32:35;20.40;99.90
23385;DHT22;11865;45.394;10.978;2023-07-09T02:35:03;20.40;99.90
23385;DHT22;11865;45.394;10.978;2023-07-09T02:37:31;20.60;99.90
23385;DHT22;11865;45.394;10.978;2023-07-09T02:40:00;20.70;99.90
23385;DHT22;11865;45.394;10.978;2023-07-09T02:42:28;20.70;99.90
23385;DHT22;11865;45.394;10.978;2023-07-09T02:44:55;20.90;99.90
23385;DHT22;11865;45.394;10.978;2023-07-09T02:47:25;21.00;99.40
23385;DHT22;11865;45.394;10.978;2023-07-09T02:49:54;21.20;99.30
23385;DHT22;11865;45.394;10.978;2023-07-09T02:52:21;21.40;98.50
23385;DHT22;11865;45.394;10.978;2023-07-09T02:54:49;21.40;99.90
23385;DHT22;11865;45.394;10.978;2023-07-09T02:57:16;21.20;99.90
23385;DHT22;11865;45.394;10.978;2023-07-09T02:59:44;21.00;99.90
23385;DHT22;11865;45.394;10.978;2023-07-09T03:02:11;20.80;99.90
23385;DHT22;11865;45.394;10.978;2023-07-09T03:04:41;21.00;99.20
23385;DHT22;11865;45.394;10.978;2023-07-09T03:07:09;21.40;98.00
23385;DHT22;11865;45.394;10.978;2023-07-09T03:09:37;21.60;97.50
23385;DHT22;11865;45.394;10.978;2023-07-09T03:12:05;21.80;96.80
23385;DHT22;11865;45.394;10.978;2023-07-09T03:14:32;21.80;96.50
23385;DHT22;11865;45.394;10.978;2023-07-09T03:17:00;21.90;96.50
23385;DHT22;11865;45.394;10.978;2023-07-09T03:19:28;21.90;96.60
23385;DHT22;11865;45.394;10.978;2023-07-09T03:21:55;21.90;96.70
23385;DHT22;11865;45.394;10.978;2023-07-09T03:24:23;21.90;96.50
23385;DHT22;11865;45.394;10.978;2023-07-09T03:26:50;21.90;96.60
23385;DHT22;11865;45.394;10.978;2023-07-09T03:29:18;21.90;96.30
23385;DHT22;11865;45.394;10.978;2023-07-09T03:31:46;21.90;96.30
23385;DHT22;11865;45.394;10.978;2023-07-09T03:34:13;21.90;96.20
23385;DHT22;11865;45.394;10.978;2023-07-09T03:36:41;21.90;96.20
23385;DHT22;11865;45.394;10.978;2023-07-09T03:39:09;21.80;97.20
23385;DHT22;11865;45.394;10.978;2023-07-09T03:41:36;21.70;98.50
23385;DHT22;11865;45.394;10.978;2023-07-09T03:44:04;21.40;98.10
23385;DHT22;11865;45.394;10.978;2023-07-09T03:46:31;21.50;97.50
23385;DHT22;11865;45.394;10.978;2023-07-09T03:48:59;21.50;98.00
23385;DHT22;11865;45.394;10.978;2023-07-09T03:51:27;21.50;98.20
23385;DHT22;11865;45.394;10.978;2023-07-09T03:53:55;21.40;97.80
23385;DHT22;11865;45.394;10.978;2023-07-09T03:56:23;21.60;97.90
23385;DHT22;11865;45.394;10.978;2023-07-09T03:58:50;21.60;97.30
23385;DHT22;11865;45.394;10.978;2023-07-09T04:01:18;21.70;97.20
23385;DHT22;11865;45.394;10.978;2023-07-09T04:03:45;21.70;97.10
23385;DHT22;11865;45.394;10.978;2023-07-09T04:06:13;21.90;97.20
23385;DHT22;11865;45.394;10.978;2023-07-09T04:08:40;21.90;97.40
23385;DHT22;11865;45.394;10.978;2023-07-09T04:11:08;22.00;97.70
23385;DHT22;11865;45.394;10.978;2023-07-09T04:13:36;22.10;98.20
23385;DHT22;11865;45.394;10.978;2023-07-09T04:16:04;21.80;99.90
23385;DHT22;11865;45.394;10.978;2023-07-09T04:18:32;21.60;99.90
23385;DHT22;11865;45.394;10.978;2023-07-09T04:21:00;21.60;99.90
23385;DHT22;11865;45.394;10.978;2023-07-09T04:23:27;21.50;99.90
23385;DHT22;11865;45.394;10.978;2023-07-09T04:25:55;21.50;99.90
23385;DHT22;11865;45.394;10.978;2023-07-09T04:28:22;21.50;99.90
23385;DHT22;11865;45.394;10.978;2023-07-09T04:30:51;21.60;99.90
23385;DHT22;11865;45.394;10.978;2023-07-09T04:33:20;21.50;99.90
23385;DHT22;11865;45.394;10.978;2023-07-09T04:35:49;21.70;99.90
23385;DHT22;11865;45.394;10.978;2023-07-09T04:38:17;21.80;99.60
23385;DHT22;11865;45.394;10.978;2023-07-09T04:40:46;21.90;99.90
23385;DHT22;11865;45.394;10.978;2023-07-09T04:43:14;21.90;99.90
23385;DHT22;11865;45.394;10.978;2023-07-09T04:45:42;22.00;99.90
23385;DHT22;11865;45.394;10.978;2023-07-09T04:48:09;22.10;99.90
23385;DHT22;11865;45.394;10.978;2023-07-09T04:50:37;22.20;99.90
23385;DHT22;11865;45.394;10.978;2023-07-09T04:53:04;22.50;99.90
23385;DHT22;11865;45.394;10.978;2023-07-09T04:55:32;22.90;99.90
23385;DHT22;11865;45.394;10.978;2023-07-09T04:57:59;23.60;98.50
23385;DHT22;11865;45.394;10.978;2023-07-09T05:00:27;24.60;96.50
23385;DHT22;11865;45.394;10.978;2023-07-09T05:02:54;25.40;94.00
23385;DHT22;11865;45.394;10.978;2023-07-09T05:05:22;26.20;93.10
23385;DHT22;11865;45.394;10.978;2023-07-09T05:07:50;27.20;91.10
23385;DHT22;11865;45.394;10.978;2023-07-09T05:10:18;27.20;90.00
23385;DHT22;11865;45.394;10.978;2023-07-09T05:12:54;27.60;88.70
23385;DHT22;11865;45.394;10.978;2023-07-09T05:15:22;27.70;88.60
23385;DHT22;11865;45.394;10.978;2023-07-09T05:17:50;28.20;86.40
23385;DHT22;11865;45.394;10.978;2023-07-09T05:20:19;28.80;86.40
23385;DHT22;11865;45.394;10.978;2023-07-09T05:22:48;29.80;84.00
23385;DHT22;11865;45.394;10.978;2023-07-09T05:25:16;29.30;82.00
23385;DHT22;11865;45.394;10.978;2023-07-09T05:27:44;30.10;82.80
23385;DHT22;11865;45.394;10.978;2023-07-09T05:30:11;30.50;81.50
23385;DHT22;11865;45.394;10.978;2023-07-09T05:32:39;30.50;79.20
23385;DHT22;11865;45.394;10.978;2023-07-09T05:35:07;31.10;77.10
23385;DHT22;11865;45.394;10.978;2023-07-09T05:37:38;31.70;76.60
23385;DHT22;11865;45.394;10.978;2023-07-09T05:40:08;30.90;76.90
23385;DHT22;11865;45.394;10.978;2023-07-09T05:42:36;31.20;77.50
23385;DHT22;11865;45.394;10.978;2023-07-09T05:45:04;31.60;76.80
23385;DHT22;11865;45.394;10.978;2023-07-09T05:47:32;31.50;75.40
23385;DHT22;11865;45.394;10.978;2023-07-09T05:50:00;32.10;74.80
23385;DHT22;11865;45.394;10.978;2023-07-09T05:52:28;31.90;74.00
23385;DHT22;11865;45.394;10.978;2023-07-09T05:54:56;32.60;74.00
23385;DHT22;11865;45.394;10.978;2023-07-09T05:57:24;32.20;73.20
23385;DHT22;11865;45.394;10.978;2023-07-09T05:59:52;32.80;72.70
23385;DHT22;11865;45.394;10.978;2023-07-09T06:02:20;33.20;72.70
23385;DHT22;11865;45.394;10.978;2023-07-09T06:04:48;33.60;71.00
23385;DHT22;11865;45.394;10.978;2023-07-09T06:07:17;33.60;72.20
23385;DHT22;11865;45.394;10.978;2023-07-09T06:09:45;33.10;70.30
23385;DHT22;11865;45.394;10.978;2023-07-09T06:12:13;32.70;69.70
23385;DHT22;11865;45.394;10.978;2023-07-09T06:14:41;32.60;70.00
23385;DHT22;11865;45.394;10.978;2023-07-09T06:17:08;32.80;68.00
23385;DHT22;11865;45.394;10.978;2023-07-09T06:19:36;33.90;70.60
23385;DHT22;11865;45.394;10.978;2023-07-09T06:22:04;33.00;66.40
23385;DHT22;11865;45.394;10.978;2023-07-09T06:24:32;33.80;66.90
23385;DHT22;11865;45.394;10.978;2023-07-09T06:26:59;33.30;66.40
23385;DHT22;11865;45.394;10.978;2023-07-09T06:29:26;33.70;67.70
23385;DHT22;11865;45.394;10.978;2023-07-09T06:31:54;33.50;66.90
23385;DHT22;11865;45.394;10.978;2023-07-09T06:34:22;33.90;69.00
23385;DHT22;11865;45.394;10.978;2023-07-09T06:36:49;33.50;68.10
23385;DHT22;11865;45.394;10.978;2023-07-09T06:39:18;34.80;69.10
23385;DHT22;11865;45.394;10.978;2023-07-09T06:41:46;34.10;68.70
23385;DHT22;11865;45.394;10.978;2023-07-09T06:44:33;32.90;66.30
23385;DHT22;11865;45.394;10.978;2023-07-09T06:47:01;34.50;69.90
23385;DHT22;11865;45.394;10.978;2023-07-09T06:49:28;34.60;70.50
23385;DHT22;11865;45.394;10.978;2023-07-09T06:51:56;33.90;70.00
23385;DHT22;11865;45.394;10.978;2023-07-09T06:54:25;33.20;66.20
23385;DHT22;11865;45.394;10.978;2023-07-09T06:56:52;34.20;69.30
23385;DHT22;11865;45.394;10.978;2023-07-09T06:59:20;33.80;72.80
23385;DHT22;11865;45.394;10.978;2023-07-09T07:01:47;33.60;72.20
23385;DHT22;11865;45.394;10.978;2023-07-09T07:04:15;34.30;67.20
23385;DHT22;11865;45.394;10.978;2023-07-09T07:06:44;33.90;66.80
23385;DHT22;11865;45.394;10.978;2023-07-09T07:09:13;34.00;70.00
23385;DHT22;11865;45.394;10.978;2023-07-09T07:11:40;33.80;68.90
23385;DHT22;11865;45.394;10.978;2023-07-09T07:14:08;32.90;68.40
23385;DHT22;11865;45.394;10.978;2023-07-09T07:16:35;33.80;69.60
23385;DHT22;11865;45.394;10.978;2023-07-09T07:19:03;34.10;68.00
23385;DHT22;11865;45.394;10.978;2023-07-09T07:21:30;34.30;67.80
23385;DHT22;11865;45.394;10.978;2023-07-09T07:23:58;34.30;69.50
23385;DHT22;11865;45.394;10.978;2023-07-09T07:26:25;33.80;68.10
23385;DHT22;11865;45.394;10.978;2023-07-09T07:28:53;34.50;65.50
23385;DHT22;11865;45.394;10.978;2023-07-09T07:31:20;34.50;64.20
23385;DHT22;11865;45.394;10.978;2023-07-09T07:33:48;34.00;64.30
23385;DHT22;11865;45.394;10.978;2023-07-09T07:36:15;33.60;65.70
23385;DHT22;11865;45.394;10.978;2023-07-09T07:38:46;33.30;66.10
23385;DHT22;11865;45.394;10.978;2023-07-09T07:41:13;34.10;67.40
23385;DHT22;11865;45.394;10.978;2023-07-09T07:43:41;33.60;71.30
23385;DHT22;11865;45.394;10.978;2023-07-09T07:46:08;33.40;68.40
23385;DHT22;11865;45.394;10.978;2023-07-09T07:48:36;32.60;72.70
23385;DHT22;11865;45.394;10.978;2023-07-09T07:51:04;33.00;69.30
23385;DHT22;11865;45.394;10.978;2023-07-09T07:53:32;32.50;73.30
23385;DHT22;11865;45.394;10.978;2023-07-09T07:55:59;32.60;71.10
23385;DHT22;11865;45.394;10.978;2023-07-09T07:58:31;33.20;70.40
23385;DHT22;11865;45.394;10.978;2023-07-09T08:01:00;33.50;68.90
23385;DHT22;11865;45.394;10.978;2023-07-09T08:03:28;34.10;68.50
23385;DHT22;11865;45.394;10.978;2023-07-09T08:05:55;33.40;70.40
23385;DHT22;11865;45.394;10.978;2023-07-09T08:08:27;33.20;72.40
23385;DHT22;11865;45.394;10.978;2023-07-09T08:11:06;33.30;69.60
23385;DHT22;11865;45.394;10.978;2023-07-09T08:13:35;33.60;71.30
23385;DHT22;11865;45.394;10.978;2023-07-09T08:16:05;34.00;74.40
23385;DHT22;11865;45.394;10.978;2023-07-09T08:18:33;34.30;71.70
23385;DHT22;11865;45.394;10.978;2023-07-09T08:21:00;34.30;69.10
23385;DHT22;11865;45.394;10.978;2023-07-09T08:23:28;34.20;71.90
23385;DHT22;11865;45.394;10.978;2023-07-09T08:25:57;33.80;72.20
23385;DHT22;11865;45.394;10.978;2023-07-09T08:28:25;34.00;71.30
23385;DHT22;11865;45.394;10.978;2023-07-09T08:30:53;33.50;72.70
23385;DHT22;11865;45.394;10.978;2023-07-09T08:33:22;33.10;73.60
23385;DHT22;11865;45.394;10.978;2023-07-09T08:35:50;32.70;73.70
23385;DHT22;11865;45.394;10.978;2023-07-09T08:38:19;32.80;76.30
23385;DHT22;11865;45.394;10.978;2023-07-09T08:41:20;32.30;76.30
23385;DHT22;11865;45.394;10.978;2023-07-09T08:49:53;31.70;77.10
23385;DHT22;11865;45.394;10.978;2023-07-09T08:52:35;31.60;79.70
23385;DHT22;11865;45.394;10.978;2023-07-09T08:55:11;31.50;80.20
23385;DHT22;11865;45.394;10.978;2023-07-09T08:57:41;31.50;80.30
23385;DHT22;11865;45.394;10.978;2023-07-09T09:00:20;31.50;76.60
23385;DHT22;11865;45.394;10.978;2023-07-09T09:02:59;31.00;77.50
23385;DHT22;11865;45.394;10.978;2023-07-09T09:05:27;30.80;82.00
23385;DHT22;11865;45.394;10.978;2023-07-09T09:10:58;30.80;88.00
23385;DHT22;11865;45.394;10.978;2023-07-09T09:13:30;30.90;82.40
23385;DHT22;11865;45.394;10.978;2023-07-09T09:16:04;31.00;82.00
23385;DHT22;11865;45.394;10.978;2023-07-09T09:18:40;31.20;85.10
23385;DHT22;11865;45.394;10.978;2023-07-09T09:21:17;31.30;80.20
23385;DHT22;11865;45.394;10.978;2023-07-09T09:23:58;31.40;78.10
23385;DHT22;11865;45.394;10.978;2023-07-09T09:26:34;31.00;77.40
23385;DHT22;11865;45.394;10.978;2023-07-09T09:29:10;31.00;80.80
23385;DHT22;11865;45.394;10.978;2023-07-09T09:31:39;31.20;80.20
23385;DHT22;11865;45.394;10.978;2023-07-09T09:34:24;31.40;79.90
23385;DHT22;11865;45.394;10.978;2023-07-09T09:36:53;31.50;77.50
23385;DHT22;11865;45.394;10.978;2023-07-09T09:39:24;31.50;78.70
23385;DHT22;11865;45.394;10.978;2023-07-09T09:41:57;31.70;80.30
23385;DHT22;11865;45.394;10.978;2023-07-09T09:44:28;31.80;77.00
23385;DHT22;11865;45.394;10.978;2023-07-09T09:46:57;31.70;75.60
23385;DHT22;11865;45.394;10.978;2023-07-09T09:49:27;31.40;76.00
23385;DHT22;11865;45.394;10.978;2023-07-09T09:51:55;31.40;78.80
23385;DHT22;11865;45.394;10.978;2023-07-09T09:54:29;31.80;77.10
23385;DHT22;11865;45.394;10.978;2023-07-09T09:56:58;31.80;78.20
23385;DHT22;11865;45.394;10.978;2023-07-09T09:59:31;31.70;79.60
23385;DHT22;11865;45.394;10.978;2023-07-09T10:02:02;31.50;79.00
23385;DHT22;11865;45.394;10.978;2023-07-09T10:04:30;31.70;78.20
23385;DHT22;11865;45.394;10.978;2023-07-09T10:07:03;32.00;82.10
23385;DHT22;11865;45.394;10.978;2023-07-09T10:09:47;32.30;79.10
23385;DHT22;11865;45.394;10.978;2023-07-09T10:25:55;31.20;77.00
23385;DHT22;11865;45.394;10.978;2023-07-09T10:39:20;31.90;77.50
23385;DHT22;11865;45.394;10.978;2023-07-09T10:41:50;32.00;79.40
23385;DHT22;11865;45.394;10.978;2023-07-09T10:44:23;31.90;77.30
23385;DHT22;11865;45.394;10.978;2023-07-09T10:46:59;31.60;75.40
23385;DHT22;11865;45.394;10.978;2023-07-09T10:49:34;31.50;73.70
23385;DHT22;11865;45.394;10.978;2023-07-09T10:55:16;32.20;75.80
23385;DHT22;11865;45.394;10.978;2023-07-09T10:57:56;32.10;74.10
23385;DHT22;11865;45.394;10.978;2023-07-09T11:00:36;32.10;77.90
23385;DHT22;11865;45.394;10.978;2023-07-09T11:03:19;32.30;78.10
23385;DHT22;11865;45.394;10.978;2023-07-09T11:05:50;32.40;77.40
23385;DHT22;11865;45.394;10.978;2023-07-09T11:08:34;32.50;77.30
23385;DHT22;11865;45.394;10.978;2023-07-09T11:11:20;32.40;78.60
23385;DHT22;11865;45.394;10.978;2023-07-09T11:13:53;32.70;75.40
23385;DHT22;11865;45.394;10.978;2023-07-09T11:16:29;32.60;76.40
23385;DHT22;11865;45.394;10.978;2023-07-09T11:19:03;32.20;73.60
23385;DHT22;11865;45.394;10.978;2023-07-09T11:21:31;32.10;74.70
23385;DHT22;11865;45.394;10.978;2023-07-09T11:24:00;32.40;75.50
23385;DHT22;11865;45.394;10.978;2023-07-09T11:26:34;32.10;77.80
23385;DHT22;11865;45.394;10.978;2023-07-09T11:31:39;32.50;74.40
23385;DHT22;11865;45.394;10.978;2023-07-09T11:34:18;32.40;77.00
23385;DHT22;11865;45.394;10.978;2023-07-09T11:39:47;32.30;75.70
23385;DHT22;11865;45.394;10.978;2023-07-09T11:42:27;32.30;76.20
23385;DHT22;11865;45.394;10.978;2023-07-09T11:45:06;32.40;72.50
23385;DHT22;11865;45.394;10.978;2023-07-09T11:50:31;32.20;73.20
23385;DHT22;11865;45.394;10.978;2023-07-09T11:53:18;32.30;76.80
23385;DHT22;11865;45.394;10.978;2023-07-09T11:55:48;31.90;74.70
23385;DHT22;11865;45.394;10.978;2023-07-09T11:58:18;32.10;74.10
23385;DHT22;11865;45.394;10.978;2023-07-09T12:00:48;32.10;73.70
23385;DHT22;11865;45.394;10.978;2023-07-09T12:03:20;32.50;73.80
23385;DHT22;11865;45.394;10.978;2023-07-09T12:05:55;32.30;71.30
23385;DHT22;11865;45.394;10.978;2023-07-09T12:08:33;32.40;74.90
23385;DHT22;11865;45.394;10.978;2023-07-09T12:11:01;32.60;73.50
23385;DHT22;11865;45.394;10.978;2023-07-09T12:13:37;32.50;75.30
23385;DHT22;11865;45.394;10.978;2023-07-09T12:16:17;32.30;76.90
23385;DHT22;11865;45.394;10.978;2023-07-09T12:18:46;32.70;73.40
23385;DHT22;11865;45.394;10.978;2023-07-09T12:21:14;32.50;71.50
23385;DHT22;11865;45.394;10.978;2023-07-09T12:23:41;32.60;71.00
23385;DHT22;11865;45.394;10.978;2023-07-09T12:26:16;32.70;70.60
23385;DHT22;11865;45.394;10.978;2023-07-09T12:28:52;32.90;73.70
23385;DHT22;11865;45.394;10.978;2023-07-09T12:31:26;32.90;73.10
23385;DHT22;11865;45.394;10.978;2023-07-09T12:33:55;32.90;74.00
23385;DHT22;11865;45.394;10.978;2023-07-09T12:36:25;33.10;73.80
23385;DHT22;11865;45.394;10.978;2023-07-09T12:39:00;33.00;72.70
23385;DHT22;11865;45.394;10.978;2023-07-09T12:41:38;32.70;72.80
23385;DHT22;11865;45.394;10.978;2023-07-09T12:44:05;32.20;73.80
23385;DHT22;11865;45.394;10.978;2023-07-09T12:46:37;32.00;75.10
23385;DHT22;11865;45.394;10.978;2023-07-09T12:49:05;32.40;73.70
23385;DHT22;11865;45.394;10.978;2023-07-09T12:51:33;32.50;73.50
23385;DHT22;11865;45.394;10.978;2023-07-09T12:54:13;32.50;72.70
23385;DHT22;11865;45.394;10.978;2023-07-09T12:56:41;32.60;73.80
23385;DHT22;11865;45.394;10.978;2023-07-09T13:02:19;32.50;74.80
23385;DHT22;11865;45.394;10.978;2023-07-09T13:04:48;32.50;71.70
23385;DHT22;11865;45.394;10.978;2023-07-09T13:07:26;32.60;71.10
23385;DHT22;11865;45.394;10.978;2023-07-09T13:09:55;32.70;71.50
23385;DHT22;11865;45.394;10.978;2023-07-09T13:12:31;32.60;69.50
23385;DHT22;11865;45.394;10.978;2023-07-09T13:14:59;32.50;70.60
23385;DHT22;11865;45.394;10.978;2023-07-09T13:17:30;32.30;69.60
23385;DHT22;11865;45.394;10.978;2023-07-09T13:19:58;32.50;76.20
23385;DHT22;11865;45.394;10.978;2023-07-09T13:22:27;32.70;76.20
23385;DHT22;11865;45.394;10.978;2023-07-09T13:24:55;33.00;75.70
23385;DHT22;11865;45.394;10.978;2023-07-09T13:27:23;32.90;76.40
23385;DHT22;11865;45.394;10.978;2023-07-09T13:29:51;33.00;72.90
23385;DHT22;11865;45.394;10.978;2023-07-09T13:32:19;33.10;71.90
23385;DHT22;11865;45.394;10.978;2023-07-09T13:34:46;32.90;70.30
23385;DHT22;11865;45.394;10.978;2023-07-09T13:37:15;32.80;70.50
23385;DHT22;11865;45.394;10.978;2023-07-09T13:39:43;32.70;70.40
23385;DHT22;11865;45.394;10.978;2023-07-09T13:42:15;32.50;72.10
23385;DHT22;11865;45.394;10.978;2023-07-09T13:44:45;32.60;73.40
23385;DHT22;11865;45.394;10.978;2023-07-09T13:47:15;32.80;73.90
23385;DHT22;11865;45.394;10.978;2023-07-09T13:49:45;32.70;76.00
23385;DHT22;11865;45.394;10.978;2023-07-09T13:52:18;32.60;74.90
23385;DHT22;11865;45.394;10.978;2023-07-09T13:54:46;32.90;75.70
23385;DHT22;11865;45.394;10.978;2023-07-09T13:57:20;32.80;76.10
23385;DHT22;11865;45.394;10.978;2023-07-09T13:59:49;32.70;73.70
23385;DHT22;11865;45.394;10.978;2023-07-09T14:02:22;32.70;75.30
23385;DHT22;11865;45.394;10.978;2023-07-09T14:04:51;33.10;74.20
23385;DHT22;11865;45.394;10.978;2023-07-09T14:07:29;33.00;74.90
23385;DHT22;11865;45.394;10.978;2023-07-09T14:09:59;33.00;74.50
23385;DHT22;11865;45.394;10.978;2023-07-09T14:12:28;32.90;71.10
23385;DHT22;11865;45.394;10.978;2023-07-09T14:14:58;32.90;73.60
23385;DHT22;11865;45.394;10.978;2023-07-09T14:17:27;32.80;75.20
23385;DHT22;11865;45.394;10.978;2023-07-09T14:19:54;33.10;74.70
23385;DHT22;11865;45.394;10.978;2023-07-09T14:22:30;33.30;74.00
23385;DHT22;11865;45.394;10.978;2023-07-09T14:25:00;33.30;74.20
23385;DHT22;11865;45.394;10.978;2023-07-09T14:27:27;33.50;73.20
23385;DHT22;11865;45.394;10.978;2023-07-09T14:29:55;33.50;75.80
23385;DHT22;11865;45.394;10.978;2023-07-09T14:32:36;33.50;74.90
23385;DHT22;11865;45.394;10.978;2023-07-09T14:35:30;33.50;72.00
23385;DHT22;11865;45.394;10.978;2023-07-09T14:37:57;33.40;74.40
23385;DHT22;11865;45.394;10.978;2023-07-09T14:40:27;33.40;72.70
23385;DHT22;11865;45.394;10.978;2023-07-09T14:42:55;33.40;73.90
23385;DHT22;11865;45.394;10.978;2023-07-09T14:45:25;33.20;73.80
23385;DHT22;11865;45.394;10.978;2023-07-09T14:47:53;33.20;75.80
23385;DHT22;11865;45.394;10.978;2023-07-09T14:50:22;33.30;75.70
23385;DHT22;11865;45.394;10.978;2023-07-09T14:52:50;33.10;73.60
23385;DHT22;11865;45.394;10.978;2023-07-09T14:55:20;33.00;75.20
23385;DHT22;11865;45.394;10.978;2023-07-09T14:57:48;32.80;71.40
23385;DHT22;11865;45.394;10.978;2023-07-09T15:00:20;33.00;72.50
23385;DHT22;11865;45.394;10.978;2023-07-09T15:02:51;33.10;73.60
23385;DHT22;11865;45.394;10.978;2023-07-09T15:05:23;33.10;72.40
23385;DHT22;11865;45.394;10.978;2023-07-09T15:07:51;32.90;71.30
23385;DHT22;11865;45.394;10.978;2023-07-09T15:10:23;32.80;71.40
23385;DHT22;11865;45.394;10.978;2023-07-09T15:12:51;32.90;71.70
23385;DHT22;11865;45.394;10.978;2023-07-09T15:15:31;32.70;75.80
23385;DHT22;11865;45.394;10.978;2023-07-09T15:18:00;32.80;75.20
23385;DHT22;11865;45.394;10.978;2023-07-09T15:20:36;33.20;75.20
23385;DHT22;11865;45.394;10.978;2023-07-09T15:23:03;33.30;73.50
23385;DHT22;11865;45.394;10.978;2023-07-09T15:25:31;33.40;75.00
23385;DHT22;11865;45.394;10.978;2023-07-09T15:27:59;33.40;75.90
23385;DHT22;11865;45.394;10.978;2023-07-09T15:30:29;33.10;70.30
23385;DHT22;11865;45.394;10.978;2023-07-09T15:32:58;33.30;73.90
23385;DHT22;11865;45.394;10.978;2023-07-09T15:35:36;33.10;74.60
23385;DHT22;11865;45.394;10.978;2023-07-09T15:40:45;32.80;71.40
23385;DHT22;11865;45.394;10.978;2023-07-09T15:43:14;32.80;72.40
23385;DHT22;11865;45.394;10.978;2023-07-09T15:45:44;32.70;74.30
23385;DHT22;11865;45.394;10.978;2023-07-09T15:50:55;32.40;75.10
23385;DHT22;11865;45.394;10.978;2023-07-09T15:53:22;32.40;76.80
23385;DHT22;11865;45.394;10.978;2023-07-09T15:55:54;32.70;76.50
23385;DHT22;11865;45.394;10.978;2023-07-09T15:58:26;33.10;73.30
23385;DHT22;11865;45.394;10.978;2023-07-09T16:00:54;33.20;71.70
23385;DHT22;11865;45.394;10.978;2023-07-09T16:03:22;33.00;71.00
23385;DHT22;11865;45.394;10.978;2023-07-09T16:05:50;33.00;70.40
23385;DHT22;11865;45.394;10.978;2023-07-09T16:08:17;33.10;72.20
23385;DHT22;11865;45.394;10.978;2023-07-09T16:10:45;33.10;72.80
23385;DHT22;11865;45.394;10.978;2023-07-09T16:13:22;33.30;73.40
23385;DHT22;11865;45.394;10.978;2023-07-09T16:15:50;33.40;70.10
23385;DHT22;11865;45.394;10.978;2023-07-09T16:18:18;33.20;69.20
23385;DHT22;11865;45.394;10.978;2023-07-09T16:20:46;33.00;70.00
23385;DHT22;11865;45.394;10.978;2023-07-09T16:23:17;33.20;70.00
23385;DHT22;11865;45.394;10.978;2023-07-09T16:25:47;33.30;70.00
23385;DHT22;11865;45.394;10.978;2023-07-09T16:28:16;32.90;69.60
23385;DHT22;11865;45.394;10.978;2023-07-09T16:30:47;32.90;72.40